createdAt,value
2017-05-24T00:00:54.746Z,83.80
2017-05-24T00:03:24.177Z,83.00
2017-05-24T00:05:55.395Z,83.10
2017-05-24T00:08:24.623Z,82.90
2017-05-24T00:10:54.380Z,83.00
2017-05-24T00:13:24.246Z,83.40
2017-05-24T00:15:54.065Z,83.30
2017-05-24T00:18:24.395Z,83.30
2017-05-24T00:20:53.939Z,83.30
2017-05-24T00:23:23.206Z,83.10
2017-05-24T00:25:53.061Z,83.60
2017-05-24T00:28:22.281Z,83.40
2017-05-24T00:30:51.488Z,83.40
2017-05-24T00:33:20.865Z,83.10
2017-05-24T00:35:50.076Z,83.50
2017-05-24T00:38:20.383Z,83.40
2017-05-24T00:40:49.685Z,83.40
2017-05-24T00:43:22.496Z,83.80
2017-05-24T00:45:55.198Z,84.10
2017-05-24T00:48:25.486Z,84.10
2017-05-24T00:50:55.084Z,84.60
2017-05-24T00:53:27.806Z,84.80
2017-05-24T00:55:58.720Z,84.80
2017-05-24T00:58:28.854Z,84.80
2017-05-24T01:00:59.541Z,84.70
2017-05-24T01:03:30.713Z,84.70
2017-05-24T01:06:01.904Z,84.90
2017-05-24T01:08:31.744Z,85.00
2017-05-24T01:11:03.439Z,84.90
2017-05-24T01:13:32.880Z,84.90
2017-05-24T01:16:02.538Z,84.90
2017-05-24T01:18:32.056Z,85.20
2017-05-24T01:21:01.307Z,85.20
2017-05-24T01:23:30.514Z,84.90
2017-05-24T01:25:59.708Z,85.20
2017-05-24T01:28:28.935Z,85.30
2017-05-24T01:30:58.479Z,85.30
2017-05-24T01:33:27.709Z,84.90
2017-05-24T01:35:56.924Z,85.10
2017-05-24T01:38:26.670Z,84.90
2017-05-24T01:40:56.024Z,85.10
2017-05-24T01:43:25.249Z,85.40
2017-05-24T01:45:55.907Z,85.70
2017-05-24T01:48:25.464Z,85.60
2017-05-24T01:50:54.836Z,85.50
2017-05-24T01:53:24.093Z,85.20
2017-05-24T01:55:54.053Z,85.20
2017-05-24T01:58:23.380Z,85.20
2017-05-24T02:00:52.689Z,85.60
2017-05-24T02:03:21.957Z,85.60
2017-05-24T02:05:51.680Z,85.80
2017-05-24T02:08:20.912Z,86.00
2017-05-24T02:10:50.116Z,85.60
2017-05-24T02:13:19.604Z,85.50
2017-05-24T02:15:49.184Z,85.70
2017-05-24T02:18:18.381Z,85.60
2017-05-24T02:20:47.577Z,85.50
2017-05-24T02:23:16.805Z,85.60
2017-05-24T02:25:46.044Z,85.80
2017-05-24T02:28:15.569Z,86.10
2017-05-24T02:30:44.780Z,86.20
2017-05-24T02:33:14.051Z,86.10
2017-05-24T02:35:43.291Z,86.50
2017-05-24T02:38:12.588Z,86.60
2017-05-24T02:40:41.947Z,86.50
2017-05-24T02:43:11.590Z,86.50
2017-05-24T02:45:40.817Z,86.10
2017-05-24T02:48:10.017Z,86.10
2017-05-24T02:50:39.238Z,86.30
2017-05-24T02:53:08.464Z,86.10
2017-05-24T02:55:37.682Z,86.50
2017-05-24T02:58:06.868Z,86.70
2017-05-24T03:00:36.277Z,86.80
2017-05-24T03:03:05.624Z,86.80
2017-05-24T03:05:35.136Z,86.80
2017-05-24T03:08:04.669Z,87.00
2017-05-24T03:10:33.944Z,87.10
2017-05-24T03:13:03.421Z,87.00
2017-05-24T03:15:32.932Z,86.90
2017-05-24T03:18:02.135Z,87.00
2017-05-24T03:20:31.575Z,87.00
2017-05-24T03:23:00.769Z,87.50
2017-05-24T03:25:30.380Z,86.90
2017-05-24T03:27:59.579Z,86.90
2017-05-24T03:30:29.173Z,86.80
2017-05-24T03:32:58.680Z,86.70
2017-05-24T03:35:27.884Z,86.70
2017-05-24T03:37:57.358Z,86.20
2017-05-24T03:40:27.979Z,86.30
2017-05-24T03:42:57.337Z,86.20
2017-05-24T03:45:26.545Z,85.80
2017-05-24T03:47:56.078Z,85.80
2017-05-24T03:50:25.412Z,85.50
2017-05-24T03:52:54.617Z,85.30
2017-05-24T03:55:23.825Z,85.10
2017-05-24T03:57:53.048Z,84.50
2017-05-24T04:00:22.296Z,84.90
2017-05-24T04:02:51.500Z,84.80
2017-05-24T04:05:20.684Z,84.90
2017-05-24T04:07:49.880Z,84.80
2017-05-24T04:10:19.116Z,84.30
2017-05-24T04:12:48.668Z,84.10
2017-05-24T04:15:17.984Z,83.50
2017-05-24T04:17:47.204Z,83.30
2017-05-24T04:20:16.424Z,83.40
2017-05-24T04:22:45.613Z,83.40
2017-05-24T04:25:15.015Z,83.30
2017-05-24T04:27:44.304Z,83.30
2017-05-24T04:30:14.025Z,83.10
2017-05-24T04:32:43.403Z,83.10
2017-05-24T04:35:12.596Z,81.90
2017-05-24T04:37:42.270Z,81.90
2017-05-24T04:40:11.472Z,82.20
2017-05-24T04:42:40.677Z,82.00
2017-05-24T04:45:10.249Z,82.10
2017-05-24T04:47:39.454Z,82.10
2017-05-24T04:50:08.685Z,82.00
2017-05-24T04:52:38.263Z,81.80
2017-05-24T04:55:07.453Z,81.80
2017-05-24T04:57:37.247Z,81.90
2017-05-24T05:00:06.508Z,82.20
2017-05-24T05:02:35.736Z,80.40
2017-05-24T05:05:05.092Z,79.30
2017-05-24T05:07:34.289Z,78.60
2017-05-24T05:10:03.888Z,77.30
2017-05-24T05:12:33.085Z,77.10
2017-05-24T05:15:02.288Z,76.90
2017-05-24T05:17:31.481Z,78.10
2017-05-24T05:20:00.684Z,78.10
2017-05-24T05:22:29.882Z,77.80
2017-05-24T05:24:59.249Z,77.70
2017-05-24T05:27:28.532Z,77.50
2017-05-24T05:29:58.086Z,77.40
2017-05-24T05:32:27.345Z,75.90
2017-05-24T05:34:56.577Z,76.20
2017-05-24T05:37:25.772Z,76.80
2017-05-24T05:39:55.053Z,75.50
2017-05-24T05:42:24.313Z,75.60
2017-05-24T05:44:53.563Z,74.50
2017-05-24T05:47:23.021Z,74.50
2017-05-24T05:49:52.246Z,75.00
2017-05-24T05:52:23.208Z,75.50
2017-05-24T05:54:52.555Z,75.30
2017-05-24T05:57:22.448Z,76.30
2017-05-24T05:59:56.209Z,76.00
2017-05-24T06:02:25.608Z,77.10
2017-05-24T06:04:54.813Z,76.30
2017-05-24T06:07:24.132Z,75.60
2017-05-24T06:09:54.456Z,75.40
2017-05-24T06:12:23.676Z,74.60
2017-05-24T06:14:52.856Z,74.10
2017-05-24T06:17:22.230Z,73.90
2017-05-24T06:19:51.508Z,73.00
2017-05-24T06:22:20.817Z,73.00
2017-05-24T06:24:50.115Z,72.20
2017-05-24T06:27:19.646Z,72.80
2017-05-24T06:29:48.897Z,71.30
2017-05-24T06:32:18.133Z,70.60
2017-05-24T06:34:47.678Z,68.40
2017-05-24T06:37:17.008Z,65.60
2017-05-24T06:39:46.275Z,66.90
2017-05-24T06:42:17.426Z,67.00
2017-05-24T06:44:46.661Z,65.50
2017-05-24T06:47:17.613Z,64.30
2017-05-24T06:49:46.969Z,64.90
2017-05-24T06:52:16.184Z,64.10
2017-05-24T06:54:45.981Z,63.30
2017-05-24T06:57:15.163Z,61.80
2017-05-24T06:59:44.689Z,62.00
2017-05-24T07:02:13.873Z,60.90
2017-05-24T07:04:43.104Z,61.30
2017-05-24T07:07:12.300Z,57.60
2017-05-24T07:09:41.792Z,55.90
2017-05-24T07:12:11.153Z,55.80
2017-05-24T07:14:40.361Z,57.70
2017-05-24T07:17:10.000Z,58.80
2017-05-24T07:19:39.416Z,59.20
2017-05-24T07:22:08.764Z,57.00
2017-05-24T07:24:37.972Z,54.30
2017-05-24T07:27:07.544Z,53.80
2017-05-24T07:29:36.745Z,54.00
2017-05-24T07:32:05.973Z,54.00
2017-05-24T07:34:35.282Z,52.20
2017-05-24T07:37:04.950Z,49.90
2017-05-24T07:39:34.843Z,50.20
2017-05-24T07:42:04.190Z,50.30
2017-05-24T07:44:36.302Z,47.60
2017-05-24T07:47:05.650Z,45.10
2017-05-24T07:49:34.855Z,47.40
2017-05-24T07:52:04.064Z,47.20
2017-05-24T07:54:33.312Z,48.10
2017-05-24T07:57:02.493Z,48.90
2017-05-24T07:59:34.416Z,47.90
2017-05-24T08:02:04.136Z,45.50
2017-05-24T08:04:33.475Z,45.00
2017-05-24T08:07:02.751Z,43.10
2017-05-24T08:09:32.467Z,42.70
2017-05-24T08:12:01.685Z,44.60
2017-05-24T08:14:30.996Z,44.80
2017-05-24T08:17:00.212Z,46.50
2017-05-24T08:19:29.419Z,48.10
2017-05-24T08:21:59.167Z,46.40
2017-05-24T08:24:28.367Z,48.90
2017-05-24T08:26:57.708Z,49.20
2017-05-24T08:29:26.914Z,46.10
2017-05-24T08:31:56.189Z,44.40
2017-05-24T08:34:25.518Z,45.40
2017-05-24T08:36:55.364Z,45.00
2017-05-24T08:39:24.581Z,41.10
2017-05-24T08:41:53.790Z,44.50
2017-05-24T08:44:23.079Z,42.50
2017-05-24T08:47:10.752Z,41.20
2017-05-24T08:49:41.936Z,43.60
2017-05-24T08:52:11.109Z,43.90
2017-05-24T08:54:40.302Z,44.50
2017-05-24T08:57:10.251Z,44.80
2017-05-24T08:59:39.461Z,44.50
2017-05-24T09:02:08.696Z,45.50
2017-05-24T09:04:38.213Z,46.00
2017-05-24T09:07:07.436Z,49.20
2017-05-24T09:09:36.745Z,49.70
2017-05-24T09:12:06.651Z,49.40
2017-05-24T09:14:35.909Z,47.30
2017-05-24T09:17:05.093Z,45.80
2017-05-24T09:19:34.330Z,45.80
2017-05-24T09:22:03.561Z,46.50
2017-05-24T09:24:32.952Z,45.90
2017-05-24T09:27:02.148Z,46.20
2017-05-24T09:29:31.811Z,46.00
2017-05-24T09:32:01.260Z,47.00
2017-05-24T09:34:30.460Z,42.50
2017-05-24T09:36:59.991Z,41.00
2017-05-24T09:39:29.211Z,42.60
2017-05-24T09:41:58.400Z,43.00
2017-05-24T09:44:27.631Z,42.60
2017-05-24T09:46:56.876Z,42.90
2017-05-24T09:49:26.139Z,41.80
2017-05-24T09:51:55.344Z,41.00
2017-05-24T09:54:24.581Z,43.10
2017-05-24T09:56:54.780Z,43.80
2017-05-24T09:59:24.009Z,40.80
2017-05-24T10:01:53.676Z,39.00
2017-05-24T10:04:23.115Z,43.30
2017-05-24T10:06:52.620Z,41.50
2017-05-24T10:09:21.846Z,38.40
2017-05-24T10:11:51.316Z,39.00
2017-05-24T10:14:21.206Z,42.00
2017-05-24T10:16:50.444Z,43.80
2017-05-24T10:19:19.796Z,43.40
2017-05-24T10:21:49.043Z,43.40
2017-05-24T10:24:18.378Z,42.10
2017-05-24T10:27:01.293Z,41.10
2017-05-24T10:29:30.904Z,39.50
2017-05-24T10:32:00.481Z,37.70
2017-05-24T10:34:30.625Z,37.20
2017-05-24T10:36:59.833Z,37.20
2017-05-24T10:39:29.629Z,39.60
2017-05-24T10:42:03.544Z,39.90
2017-05-24T10:44:33.088Z,41.30
2017-05-24T10:47:02.318Z,41.20
2017-05-24T10:49:32.292Z,39.90
2017-05-24T10:52:01.973Z,39.20
2017-05-24T10:54:31.190Z,41.00
2017-05-24T10:57:00.369Z,41.00
2017-05-24T10:59:29.900Z,42.50
2017-05-24T11:01:59.132Z,42.80
2017-05-24T11:04:28.326Z,44.50
2017-05-24T11:06:58.129Z,44.50
2017-05-24T11:09:27.362Z,43.40
2017-05-24T11:11:56.591Z,44.00
2017-05-24T11:14:25.783Z,43.70
2017-05-24T11:16:54.992Z,45.00
2017-05-24T11:19:24.220Z,43.70
2017-05-24T11:21:53.630Z,44.70
2017-05-24T11:24:22.877Z,45.10
2017-05-24T11:26:52.176Z,45.00
2017-05-24T11:29:21.388Z,45.10
2017-05-24T11:31:50.999Z,43.90
2017-05-24T11:34:20.205Z,43.30
2017-05-24T11:36:49.806Z,42.90
2017-05-24T11:39:18.993Z,42.10
2017-05-24T11:41:48.223Z,41.80
2017-05-24T11:44:17.513Z,42.70
2017-05-24T11:46:46.737Z,41.90
2017-05-24T11:49:20.628Z,42.30
2017-05-24T11:51:51.464Z,42.40
2017-05-24T11:54:21.064Z,41.40
2017-05-24T11:56:50.261Z,43.00
2017-05-24T11:59:20.053Z,43.20
2017-05-24T12:01:49.279Z,42.20
2017-05-24T12:04:18.485Z,42.30
2017-05-24T12:06:47.790Z,42.30
2017-05-24T12:09:17.082Z,41.70
2017-05-24T12:11:46.383Z,43.00
2017-05-24T12:14:15.580Z,44.80
2017-05-24T12:16:44.819Z,43.10
2017-05-24T12:19:14.036Z,44.20
2017-05-24T12:21:43.246Z,45.20
2017-05-24T12:24:12.848Z,45.90
2017-05-24T12:26:42.179Z,45.40
2017-05-24T12:29:11.363Z,45.30
2017-05-24T12:31:40.769Z,47.00
2017-05-24T12:34:10.023Z,47.70
2017-05-24T12:36:39.228Z,45.40
2017-05-24T12:39:12.105Z,47.60
2017-05-24T12:41:41.423Z,47.80
2017-05-24T12:44:11.020Z,48.00
2017-05-24T12:46:40.288Z,48.90
2017-05-24T12:49:09.509Z,49.80
2017-05-24T12:51:39.159Z,50.70
2017-05-24T12:54:08.349Z,50.20
2017-05-24T12:56:37.928Z,48.80
2017-05-24T12:59:07.128Z,49.80
2017-05-24T13:01:36.332Z,51.30
2017-05-24T13:04:05.560Z,49.40
2017-05-24T13:06:35.326Z,50.80
2017-05-24T13:09:05.218Z,49.70
2017-05-24T13:11:34.419Z,49.90
2017-05-24T13:14:03.660Z,49.50
2017-05-24T13:16:32.879Z,50.40
2017-05-24T13:19:03.530Z,49.80
2017-05-24T13:21:35.973Z,50.80
2017-05-24T13:24:05.504Z,50.50
2017-05-24T13:26:34.817Z,52.10
2017-05-24T13:29:04.492Z,53.10
2017-05-24T13:31:34.109Z,51.90
2017-05-24T13:34:03.408Z,52.10
2017-05-24T13:36:33.078Z,49.40
2017-05-24T13:39:02.480Z,51.20
2017-05-24T13:41:31.764Z,51.10
2017-05-24T13:44:01.012Z,49.60
2017-05-24T13:46:30.456Z,49.90
2017-05-24T13:48:59.965Z,49.10
2017-05-24T13:51:29.500Z,51.50
2017-05-24T13:53:58.704Z,51.90
2017-05-24T13:56:28.102Z,50.80
2017-05-24T13:58:57.349Z,52.80
2017-05-24T14:01:26.576Z,52.20
2017-05-24T14:03:56.239Z,52.20
2017-05-24T14:06:25.452Z,50.70
2017-05-24T14:08:54.657Z,50.90
2017-05-24T14:11:23.911Z,50.40
2017-05-24T14:13:53.146Z,51.00
2017-05-24T14:16:23.510Z,50.30
2017-05-24T14:18:52.704Z,50.70
2017-05-24T14:21:21.950Z,49.80
2017-05-24T14:23:52.052Z,51.00
2017-05-24T14:26:21.840Z,51.30
2017-05-24T14:28:51.306Z,50.90
2017-05-24T14:31:20.963Z,51.70
2017-05-24T14:33:50.208Z,51.50
2017-05-24T14:36:19.561Z,50.20
2017-05-24T14:38:49.350Z,51.10
2017-05-24T14:41:18.776Z,46.00
2017-05-24T14:43:47.961Z,49.20
2017-05-24T14:46:17.363Z,48.30
2017-05-24T14:48:46.916Z,47.60
2017-05-24T14:51:16.128Z,48.80
2017-05-24T14:53:45.335Z,47.00
2017-05-24T14:56:14.553Z,48.60
2017-05-24T14:58:43.763Z,48.90
2017-05-24T15:01:14.776Z,48.10
2017-05-24T15:03:44.397Z,47.30
2017-05-24T15:06:14.045Z,49.00
2017-05-24T15:08:43.257Z,49.90
2017-05-24T15:11:12.474Z,50.10
2017-05-24T15:13:41.720Z,49.60
2017-05-24T15:16:10.901Z,51.10
2017-05-24T15:18:40.098Z,51.20
2017-05-24T15:21:09.458Z,52.00
2017-05-24T15:23:39.391Z,52.90
2017-05-24T15:26:08.732Z,53.40
2017-05-24T15:28:37.977Z,52.10
2017-05-24T15:31:07.558Z,51.10
2017-05-24T15:33:36.809Z,50.90
2017-05-24T15:36:06.137Z,51.30
2017-05-24T15:38:35.327Z,51.20
2017-05-24T15:41:04.910Z,50.30
2017-05-24T15:43:34.620Z,51.30
2017-05-24T15:46:03.844Z,51.40
2017-05-24T15:48:33.026Z,52.70
2017-05-24T15:51:02.525Z,53.60
2017-05-24T15:53:31.717Z,52.90
2017-05-24T15:56:00.951Z,52.40
2017-05-24T15:58:30.145Z,52.60
2017-05-24T16:00:59.574Z,54.00
2017-05-24T16:03:29.240Z,53.90
2017-05-24T16:05:59.974Z,52.90
2017-05-24T16:08:29.241Z,53.60
2017-05-24T16:10:58.631Z,54.10
2017-05-24T16:13:28.082Z,53.80
2017-05-24T16:15:57.355Z,53.30
2017-05-24T16:18:26.668Z,54.40
2017-05-24T16:20:55.863Z,53.30
2017-05-24T16:23:26.348Z,52.90
2017-05-24T16:25:55.616Z,53.60
2017-05-24T16:28:24.959Z,54.00
2017-05-24T16:30:54.165Z,54.80
2017-05-24T16:33:23.493Z,54.70
2017-05-24T16:35:52.733Z,54.90
2017-05-24T16:38:22.044Z,55.10
2017-05-24T16:40:51.239Z,54.90
2017-05-24T16:43:20.510Z,56.90
2017-05-24T16:45:49.800Z,55.00
2017-05-24T16:48:19.051Z,55.20
2017-05-24T16:50:48.645Z,55.50
2017-05-24T16:53:17.829Z,55.90
2017-05-24T16:55:47.089Z,56.10
2017-05-24T16:58:16.310Z,55.90
2017-05-24T17:00:45.811Z,56.00
2017-05-24T17:03:15.382Z,57.50
2017-05-24T17:05:45.118Z,57.40
2017-05-24T17:08:14.369Z,57.80
2017-05-24T17:10:43.592Z,57.10
2017-05-24T17:13:12.776Z,57.70
2017-05-24T17:15:42.156Z,59.10
2017-05-24T17:18:11.872Z,58.90
2017-05-24T17:20:42.955Z,58.80
2017-05-24T17:23:12.519Z,59.10
2017-05-24T17:25:41.924Z,59.40
2017-05-24T17:28:11.152Z,59.40
2017-05-24T17:30:40.380Z,59.20
2017-05-24T17:33:09.661Z,59.30
2017-05-24T17:35:39.031Z,59.70
2017-05-24T17:38:08.305Z,59.40
2017-05-24T17:40:38.016Z,60.10
2017-05-24T17:43:07.328Z,59.80
2017-05-24T17:45:36.683Z,60.00
2017-05-24T17:48:05.905Z,59.90
2017-05-24T17:50:35.112Z,60.00
2017-05-24T17:53:04.376Z,60.00
2017-05-24T17:55:34.027Z,60.70
2017-05-24T17:58:03.233Z,61.10
2017-05-24T18:00:32.428Z,60.80
2017-05-24T18:03:02.099Z,61.10
2017-05-24T18:05:31.631Z,60.50
2017-05-24T18:08:00.849Z,61.10
2017-05-24T18:10:30.101Z,61.00
2017-05-24T18:12:59.350Z,61.50
2017-05-24T18:15:28.549Z,61.80
2017-05-24T18:17:58.180Z,62.20
2017-05-24T18:20:27.400Z,63.00
2017-05-24T18:24:00.038Z,61.60
2017-05-24T18:26:29.257Z,62.10
2017-05-24T18:28:59.281Z,61.70
2017-05-24T18:31:29.164Z,62.30
2017-05-24T18:33:58.728Z,62.90
2017-05-24T18:36:27.956Z,62.90
2017-05-24T18:38:57.203Z,63.30
2017-05-24T18:41:26.410Z,64.10
2017-05-24T18:43:55.626Z,63.80
2017-05-24T18:46:26.034Z,64.20
2017-05-24T18:48:55.332Z,64.70
2017-05-24T18:51:24.850Z,64.60
2017-05-24T18:53:54.190Z,64.60
2017-05-24T18:56:23.420Z,65.30
2017-05-24T18:58:52.958Z,64.80
2017-05-24T19:01:22.175Z,65.10
2017-05-24T19:03:51.748Z,66.00
2017-05-24T19:06:21.227Z,66.00
2017-05-24T19:08:50.470Z,65.90
2017-05-24T19:11:19.653Z,66.40
2017-05-24T19:13:48.893Z,66.60
2017-05-24T19:16:18.158Z,66.40
2017-05-24T19:18:48.185Z,66.60
2017-05-24T19:21:17.400Z,67.30
2017-05-24T19:23:46.938Z,67.60
2017-05-24T19:26:16.524Z,67.60
2017-05-24T19:28:46.816Z,67.80
2017-05-24T19:31:16.304Z,68.30
2017-05-24T19:33:46.402Z,68.50
2017-05-24T19:36:15.780Z,69.30
2017-05-24T19:38:45.077Z,69.40
2017-05-24T19:41:14.553Z,70.10
2017-05-24T19:43:44.029Z,70.50
2017-05-24T19:46:13.869Z,70.80
2017-05-24T19:48:43.109Z,71.10
2017-05-24T19:51:12.577Z,71.60
2017-05-24T19:53:41.854Z,72.40
2017-05-24T19:56:11.430Z,72.60
2017-05-24T19:58:40.871Z,73.60
2017-05-24T20:01:10.646Z,73.70
2017-05-24T20:03:39.850Z,75.80
2017-05-24T20:06:09.391Z,75.40
2017-05-24T20:08:38.649Z,75.80
2017-05-24T20:11:08.021Z,76.30
2017-05-24T20:13:37.330Z,76.80
2017-05-24T20:16:06.537Z,77.40
2017-05-24T20:18:35.788Z,77.70
2017-05-24T20:21:05.424Z,78.90
2017-05-24T20:23:35.365Z,78.40
2017-05-24T20:26:04.589Z,78.70
2017-05-24T20:28:33.868Z,78.80
2017-05-24T20:31:03.128Z,79.10
2017-05-24T20:33:32.338Z,79.10
2017-05-24T20:36:01.528Z,79.80
2017-05-24T20:38:30.733Z,79.80
2017-05-24T20:40:59.981Z,80.10
2017-05-24T20:43:29.166Z,80.40
2017-05-24T20:45:58.962Z,80.60
2017-05-24T20:48:28.440Z,81.00
2017-05-24T20:50:57.647Z,81.50
2017-05-24T20:53:26.879Z,81.60
2017-05-24T20:55:56.121Z,81.90
2017-05-24T20:58:25.324Z,82.20
2017-05-24T21:00:55.074Z,83.30
2017-05-24T21:03:24.289Z,83.80
2017-05-24T21:05:53.550Z,83.60
2017-05-24T21:08:23.141Z,83.80
2017-05-24T21:10:52.893Z,84.00
2017-05-24T21:13:22.093Z,84.00
2017-05-24T21:15:51.368Z,84.50
2017-05-24T21:18:20.616Z,84.80
2017-05-24T21:20:50.043Z,85.10
2017-05-24T21:23:19.308Z,85.80
2017-05-24T21:25:48.539Z,85.80
2017-05-24T21:28:17.788Z,85.80
2017-05-24T21:30:47.371Z,85.70
2017-05-24T21:33:16.642Z,85.50
2017-05-24T21:35:45.848Z,85.80
2017-05-24T21:38:15.144Z,86.20
2017-05-24T21:40:44.345Z,86.50
2017-05-24T21:43:14.085Z,86.80
2017-05-24T21:45:43.332Z,86.90
2017-05-24T21:48:12.588Z,86.60
2017-05-24T21:50:54.489Z,87.00
2017-05-24T21:53:23.885Z,86.60
2017-05-24T21:55:53.608Z,86.30
2017-05-24T21:58:23.064Z,86.90
2017-05-24T22:00:52.320Z,87.00
2017-05-24T22:03:21.574Z,87.40
2017-05-24T22:05:51.148Z,87.00
2017-05-24T22:08:20.360Z,87.30
2017-05-24T22:10:50.032Z,87.20
2017-05-24T22:13:19.245Z,87.50
2017-05-24T22:15:48.426Z,87.70
2017-05-24T22:18:17.849Z,88.00
2017-05-24T22:20:47.203Z,88.00
2017-05-24T22:23:16.858Z,88.40
2017-05-24T22:25:46.237Z,88.20
2017-05-24T22:28:15.630Z,88.30
2017-05-24T22:30:45.261Z,88.00
2017-05-24T22:33:14.668Z,88.10
2017-05-24T22:35:43.901Z,88.30
2017-05-24T22:38:13.474Z,88.40
2017-05-24T22:40:42.797Z,88.60
2017-05-24T22:43:12.550Z,89.00
2017-05-24T22:45:41.759Z,88.80
2017-05-24T22:48:10.969Z,88.90
2017-05-24T22:50:40.793Z,89.40
2017-05-24T22:53:10.049Z,89.30
2017-05-24T22:55:39.602Z,90.10
2017-05-24T22:58:08.821Z,89.60
2017-05-24T23:00:38.225Z,89.50
2017-05-24T23:03:07.441Z,90.00
2017-05-24T23:05:36.648Z,89.60
2017-05-24T23:08:05.834Z,89.90
2017-05-24T23:10:35.056Z,89.50
2017-05-24T23:13:04.693Z,90.00
2017-05-24T23:15:34.184Z,89.90
2017-05-24T23:18:03.438Z,90.30
2017-05-24T23:20:32.621Z,90.10
2017-05-24T23:23:01.828Z,90.40
2017-05-24T23:25:31.068Z,90.30
2017-05-24T23:28:00.523Z,90.40
2017-05-24T23:30:29.841Z,90.40
2017-05-24T23:32:59.020Z,90.30
2017-05-24T23:35:28.688Z,90.60
2017-05-24T23:37:57.981Z,90.60
2017-05-24T23:40:27.291Z,90.00
2017-05-24T23:42:56.768Z,90.10
2017-05-24T23:45:25.992Z,90.10
2017-05-24T23:47:55.402Z,89.90
2017-05-24T23:50:24.597Z,89.50
2017-05-24T23:52:53.980Z,89.30
2017-05-24T23:55:23.204Z,89.10
2017-05-24T23:57:53.013Z,89.00
